createdAt,value
2019-05-16T00:01:38.538Z,22.61
2019-05-16T00:04:08.759Z,22.70
2019-05-16T00:06:39.203Z,22.69
2019-05-16T00:11:51.854Z,22.69
2019-05-16T00:14:20.782Z,22.56
2019-05-16T00:16:49.784Z,22.67
2019-05-16T00:19:19.017Z,22.67
2019-05-16T00:21:48.691Z,22.65
2019-05-16T00:24:18.789Z,22.61
2019-05-16T00:26:47.958Z,22.56
2019-05-16T00:29:18.390Z,22.59
2019-05-16T00:33:01.662Z,22.67
2019-05-16T00:35:31.643Z,22.63
2019-05-16T00:37:59.753Z,22.57
2019-05-16T00:42:08.776Z,22.56
2019-05-16T00:44:38.734Z,22.63
2019-05-16T00:47:08.707Z,22.45
2019-05-16T00:49:38.600Z,22.45
2019-05-16T00:52:07.886Z,22.49
2019-05-16T00:54:38.531Z,22.49
2019-05-16T00:57:09.044Z,22.46
2019-05-16T00:59:39.954Z,22.48
2019-05-16T01:02:09.151Z,22.48
2019-05-16T01:05:14.478Z,22.53
2019-05-16T01:07:44.157Z,22.48
2019-05-16T01:10:18.133Z,22.34
2019-05-16T01:12:48.025Z,22.40
2019-05-16T01:15:18.868Z,22.40
2019-05-16T01:18:28.520Z,22.42
2019-05-16T01:20:58.797Z,22.37
2019-05-16T01:23:30.351Z,22.37
2019-05-16T01:25:59.045Z,22.33
2019-05-16T01:28:28.803Z,22.41
2019-05-16T01:30:57.999Z,22.38
2019-05-16T01:33:28.093Z,22.25
2019-05-16T01:35:58.491Z,22.25
2019-05-16T01:38:28.481Z,22.32
2019-05-16T01:40:58.309Z,22.24
2019-05-16T01:43:28.875Z,22.31
2019-05-16T01:45:57.796Z,22.31
2019-05-16T01:48:28.985Z,22.32
2019-05-16T01:50:58.411Z,22.32
2019-05-16T01:53:28.451Z,22.18
2019-05-16T01:55:58.118Z,22.18
2019-05-16T01:58:29.130Z,22.24
2019-05-16T02:01:10.466Z,22.17
2019-05-16T02:03:30.399Z,22.19
2019-05-16T02:05:59.744Z,22.26
2019-05-16T02:08:29.689Z,22.16
2019-05-16T02:10:59.411Z,22.14
2019-05-16T02:13:30.766Z,22.19
2019-05-16T02:16:02.557Z,22.12
2019-05-16T02:18:31.662Z,22.22
2019-05-16T02:21:01.683Z,22.22
2019-05-16T02:23:30.616Z,22.16
2019-05-16T02:26:02.296Z,22.16
2019-05-16T02:28:39.782Z,22.20
2019-05-16T02:33:14.163Z,22.26
2019-05-16T02:35:42.286Z,22.19
2019-05-16T02:38:11.788Z,22.19
2019-05-16T02:40:41.917Z,22.18
2019-05-16T02:43:12.526Z,22.18
2019-05-16T02:47:55.357Z,22.07
2019-05-16T02:50:24.410Z,22.07
2019-05-16T02:52:52.149Z,22.19
2019-05-16T02:55:21.857Z,22.19
2019-05-16T02:57:51.306Z,22.18
2019-05-16T03:00:33.239Z,22.19
2019-05-16T03:03:02.311Z,22.20
2019-05-16T03:05:31.248Z,22.12
2019-05-16T03:08:01.302Z,22.12
2019-05-16T03:10:31.182Z,22.09
2019-05-16T03:13:00.857Z,22.07
2019-05-16T03:15:30.909Z,22.14
2019-05-16T03:18:00.446Z,22.15
2019-05-16T03:20:31.907Z,22.10
2019-05-16T03:23:02.250Z,22.06
2019-05-16T03:25:31.415Z,22.13
2019-05-16T03:28:01.848Z,22.10
2019-05-16T03:30:34.924Z,22.08
2019-05-16T03:33:04.769Z,22.11
2019-05-16T03:35:33.964Z,22.11
2019-05-16T03:38:05.559Z,22.12
2019-05-16T03:40:32.017Z,22.13
2019-05-16T03:43:01.584Z,22.10
2019-05-16T03:45:32.040Z,22.08
2019-05-16T03:48:02.812Z,22.07
2019-05-16T03:50:30.810Z,22.11
2019-05-16T03:53:01.514Z,22.11
2019-05-16T03:55:32.357Z,22.08
2019-05-16T03:58:01.134Z,22.08
2019-05-16T04:00:52.139Z,22.02
2019-05-16T04:03:21.448Z,22.02
2019-05-16T04:05:52.662Z,22.11
2019-05-16T04:08:24.774Z,22.07
2019-05-16T04:10:52.072Z,22.07
2019-05-16T04:13:22.178Z,22.10
2019-05-16T04:15:52.402Z,22.15
2019-05-16T04:19:51.294Z,22.21
2019-05-16T04:22:21.449Z,22.21
2019-05-16T04:24:51.293Z,22.22
2019-05-16T04:27:21.221Z,22.03
2019-05-16T04:29:51.338Z,22.03
2019-05-16T04:32:20.872Z,22.24
2019-05-16T04:34:50.936Z,22.24
2019-05-16T04:37:24.063Z,22.23
2019-05-16T04:39:50.748Z,22.32
2019-05-16T04:42:21.406Z,22.34
2019-05-16T04:44:51.566Z,22.34
2019-05-16T04:47:21.083Z,22.29
2019-05-16T04:49:51.784Z,22.37
2019-05-16T04:52:21.525Z,22.35
2019-05-16T04:54:51.208Z,22.45
2019-05-16T04:57:20.969Z,22.39
2019-05-16T04:59:50.849Z,22.43
2019-05-16T05:02:21.380Z,22.43
2019-05-16T05:04:50.899Z,22.42
2019-05-16T05:07:20.659Z,22.48
2019-05-16T05:09:51.160Z,22.49
2019-05-16T05:12:20.815Z,22.44
2019-05-16T05:14:50.800Z,22.44
2019-05-16T05:17:17.145Z,22.55
2019-05-16T05:19:45.237Z,22.57
2019-05-16T05:23:41.807Z,22.60
2019-05-16T05:26:10.897Z,22.57
2019-05-16T05:28:40.181Z,22.57
2019-05-16T05:31:10.619Z,22.55
2019-05-16T05:33:41.374Z,22.57
2019-05-16T05:36:12.026Z,22.65
2019-05-16T05:38:40.196Z,22.65
2019-05-16T05:41:10.564Z,22.71
2019-05-16T05:43:39.741Z,22.71
2019-05-16T05:46:10.928Z,22.64
2019-05-16T05:48:40.891Z,22.71
2019-05-16T05:51:11.237Z,22.71
2019-05-16T05:53:40.205Z,22.68
2019-05-16T05:56:11.279Z,22.72
2019-05-16T05:58:37.761Z,22.72
2019-05-16T06:01:05.872Z,22.72
2019-05-16T06:03:33.931Z,22.77
2019-05-16T06:06:02.069Z,22.75
2019-05-16T06:08:30.851Z,22.75
2019-05-16T06:11:00.791Z,22.85
2019-05-16T06:13:31.622Z,22.87
2019-05-16T06:16:00.349Z,22.91
2019-05-16T06:18:30.811Z,22.98
2019-05-16T06:21:00.472Z,22.98
2019-05-16T06:23:31.099Z,23.03
2019-05-16T06:26:00.428Z,23.03
2019-05-16T06:28:30.771Z,23.07
2019-05-16T06:31:01.843Z,23.18
2019-05-16T06:33:30.564Z,23.18
2019-05-16T06:36:00.251Z,23.22
2019-05-16T06:38:30.146Z,23.39
2019-05-16T06:41:00.070Z,23.39
2019-05-16T06:43:30.052Z,23.43
2019-05-16T06:46:00.338Z,23.48
2019-05-16T06:48:30.423Z,23.50
2019-05-16T06:51:02.562Z,23.52
2019-05-16T06:53:29.905Z,23.59
2019-05-16T06:56:00.192Z,23.81
2019-05-16T06:58:30.224Z,23.81
2019-05-16T07:01:00.422Z,23.85
2019-05-16T07:03:30.844Z,23.85
2019-05-16T07:06:00.534Z,23.87
2019-05-16T07:08:31.044Z,23.93
2019-05-16T07:10:59.998Z,23.93
2019-05-16T07:13:30.429Z,24.04
2019-05-16T07:16:00.460Z,24.09
2019-05-16T07:18:30.735Z,24.15
2019-05-16T07:21:00.026Z,24.09
2019-05-16T07:23:29.661Z,24.09
2019-05-16T07:25:57.944Z,24.10
2019-05-16T07:28:25.211Z,24.10
2019-05-16T07:30:53.742Z,24.27
2019-05-16T07:33:22.605Z,24.31
2019-05-16T07:35:51.639Z,24.35
2019-05-16T07:38:20.249Z,24.34
2019-05-16T07:40:51.259Z,24.46
2019-05-16T07:43:20.583Z,24.46
2019-05-16T07:45:51.313Z,24.61
2019-05-16T07:48:21.662Z,24.56
2019-05-16T07:50:50.036Z,24.56
2019-05-16T07:53:21.128Z,24.68
2019-05-16T07:55:50.864Z,24.75
2019-05-16T07:58:21.832Z,24.70
2019-05-16T08:00:57.787Z,24.70
2019-05-16T08:03:19.947Z,24.83
2019-05-16T08:05:51.294Z,24.84
2019-05-16T08:08:23.259Z,24.80
2019-05-16T08:10:51.271Z,24.80
2019-05-16T08:13:21.039Z,24.93
2019-05-16T08:15:50.696Z,24.93
2019-05-16T08:18:21.373Z,24.93
2019-05-16T08:20:52.015Z,24.97
2019-05-16T08:23:21.855Z,25.02
2019-05-16T08:26:40.014Z,25.13
2019-05-16T08:31:15.543Z,25.23
2019-05-16T08:33:43.619Z,25.18
2019-05-16T08:36:12.184Z,25.24
2019-05-16T08:38:43.010Z,25.12
2019-05-16T08:43:41.444Z,25.23
2019-05-16T08:46:12.357Z,25.28
2019-05-16T08:48:42.249Z,25.30
2019-05-16T08:50:09.836Z,25.23
2019-05-16T08:51:12.123Z,25.40
2019-05-16T08:56:12.403Z,25.42
2019-05-16T08:58:41.029Z,25.48
2019-05-16T09:02:06.754Z,25.58
2019-05-16T09:04:34.728Z,25.58
2019-05-16T09:07:03.987Z,25.68
2019-05-16T09:09:42.771Z,25.79
2019-05-16T09:10:31.817Z,25.40
2019-05-16T09:12:03.616Z,25.79
2019-05-16T09:14:35.358Z,25.77
2019-05-16T09:17:02.015Z,25.80
2019-05-16T09:19:31.537Z,25.80
2019-05-16T09:21:59.450Z,25.81
2019-05-16T09:24:27.367Z,25.87
2019-05-16T09:26:57.876Z,25.94
2019-05-16T09:29:27.752Z,26.00
2019-05-16T09:32:11.342Z,25.98
2019-05-16T09:37:08.521Z,26.03
2019-05-16T09:39:37.173Z,25.99
2019-05-16T09:42:08.003Z,25.90
2019-05-16T09:44:36.997Z,25.90
2019-05-16T09:47:07.559Z,25.98
2019-05-16T09:49:37.094Z,25.98
2019-05-16T09:52:07.435Z,26.06
2019-05-16T09:54:34.705Z,26.12
2019-05-16T09:57:02.471Z,26.20
2019-05-16T09:59:31.158Z,26.20
2019-05-16T10:01:59.530Z,26.26
2019-05-16T10:04:28.098Z,26.43
2019-05-16T10:06:57.367Z,26.43
2019-05-16T10:09:38.538Z,26.60
2019-05-16T10:12:08.244Z,26.66
2019-05-16T10:14:26.868Z,26.66
2019-05-16T10:16:54.592Z,26.74
2019-05-16T10:19:23.134Z,26.76
2019-05-16T10:21:52.202Z,26.79
2019-05-16T10:24:19.478Z,26.79
2019-05-16T10:26:53.654Z,26.72
2019-05-16T10:29:18.282Z,26.70
2019-05-16T10:31:52.609Z,26.72
2019-05-16T10:34:17.388Z,26.72
2019-05-16T10:36:47.181Z,26.88
2019-05-16T10:39:14.569Z,26.94
2019-05-16T10:42:06.926Z,27.04
2019-05-16T10:44:38.395Z,27.05
2019-05-16T10:47:07.543Z,27.12
2019-05-16T10:49:41.417Z,27.12
2019-05-16T10:52:08.638Z,27.15
2019-05-16T10:54:37.310Z,27.16
2019-05-16T10:57:08.217Z,27.14
2019-05-16T10:59:57.757Z,27.11
2019-05-16T11:02:08.465Z,27.12
2019-05-16T11:04:52.829Z,27.12
2019-05-16T11:07:07.012Z,27.09
2019-05-16T11:09:39.167Z,27.14
2019-05-16T11:12:04.807Z,27.14
2019-05-16T11:14:33.196Z,27.13
2019-05-16T11:17:00.869Z,27.13
2019-05-16T11:19:29.774Z,27.06
2019-05-16T11:21:59.068Z,27.06
2019-05-16T11:24:29.339Z,27.04
2019-05-16T11:26:57.413Z,27.07
2019-05-16T11:29:26.866Z,26.97
2019-05-16T11:31:57.262Z,26.97
2019-05-16T11:34:26.627Z,27.09
2019-05-16T11:36:57.025Z,27.07
2019-05-16T11:39:26.561Z,27.20
2019-05-16T11:41:57.147Z,27.20
2019-05-16T11:44:28.361Z,27.19
2019-05-16T11:46:57.594Z,27.19
2019-05-16T11:49:27.594Z,27.14
2019-05-16T11:51:57.894Z,27.16
2019-05-16T11:54:26.772Z,27.17
2019-05-16T11:56:57.057Z,27.17
2019-05-16T11:59:25.481Z,27.16
2019-05-16T12:01:53.284Z,27.16
2019-05-16T12:04:21.012Z,27.13
2019-05-16T12:06:48.366Z,27.10
2019-05-16T12:09:17.818Z,27.11
2019-05-16T12:11:46.216Z,27.13
2019-05-16T12:14:16.474Z,27.12
2019-05-16T12:16:47.017Z,27.03
2019-05-16T12:19:14.017Z,27.03
2019-05-16T12:21:41.272Z,27.06
2019-05-16T12:24:08.834Z,27.07
2019-05-16T12:26:37.677Z,27.00
2019-05-16T12:29:07.017Z,27.00
2019-05-16T12:31:37.364Z,27.00
2019-05-16T12:34:08.989Z,27.14
2019-05-16T12:36:37.750Z,27.17
2019-05-16T12:39:07.951Z,27.11
2019-05-16T12:41:41.167Z,27.17
2019-05-16T12:44:07.843Z,27.18
2019-05-16T12:46:36.529Z,27.18
2019-05-16T12:49:22.505Z,27.12
2019-05-16T12:51:51.608Z,27.09
2019-05-16T12:59:02.318Z,27.17
2019-05-16T13:01:34.371Z,27.05
2019-05-16T13:04:03.545Z,26.89
2019-05-16T13:06:31.050Z,26.89
2019-05-16T13:09:00.164Z,25.84
2019-05-16T13:11:29.975Z,24.66
2019-05-16T13:14:06.255Z,24.66
2019-05-16T13:16:29.724Z,25.10
2019-05-16T13:18:57.813Z,25.04
2019-05-16T13:21:27.685Z,25.65
2019-05-16T13:23:57.388Z,25.65
2019-05-16T13:26:26.186Z,26.07
2019-05-16T13:28:53.815Z,26.06
2019-05-16T13:31:23.403Z,25.10
2019-05-16T13:33:51.075Z,25.89
2019-05-16T13:36:19.095Z,25.89
2019-05-16T13:38:48.275Z,26.06
2019-05-16T13:41:18.470Z,26.24
2019-05-16T13:43:47.283Z,26.47
2019-05-16T13:46:17.186Z,26.52
2019-05-16T13:48:46.938Z,26.58
2019-05-16T13:51:19.096Z,26.60
2019-05-16T13:53:47.419Z,26.60
2019-05-16T13:56:17.644Z,26.45
2019-05-16T13:58:46.991Z,26.41
2019-05-16T14:01:17.128Z,26.41
2019-05-16T14:03:48.041Z,26.42
2019-05-16T14:06:18.459Z,26.39
2019-05-16T14:08:46.847Z,26.34
2019-05-16T14:11:14.732Z,26.31
2019-05-16T14:13:42.807Z,26.21
2019-05-16T14:16:10.983Z,26.33
2019-05-16T14:18:39.546Z,26.36
2019-05-16T14:21:08.026Z,26.36
2019-05-16T14:23:38.408Z,26.37
2019-05-16T14:26:07.106Z,26.36
2019-05-16T14:28:37.551Z,26.34
2019-05-16T14:31:07.156Z,24.52
2019-05-16T14:33:36.894Z,24.80
2019-05-16T14:36:07.280Z,24.80
2019-05-16T14:38:37.447Z,25.42
2019-05-16T14:41:07.780Z,25.68
2019-05-16T14:43:36.429Z,25.68
2019-05-16T14:46:07.117Z,24.92
2019-05-16T14:48:37.058Z,24.92
2019-05-16T14:51:05.861Z,25.34
2019-05-16T14:53:34.113Z,25.34
2019-05-16T14:56:02.071Z,25.61
2019-05-16T14:58:30.963Z,25.79
2019-05-16T15:00:59.900Z,25.90
2019-05-16T15:03:29.932Z,26.01
2019-05-16T15:05:59.181Z,26.04
2019-05-16T15:08:27.592Z,26.08
2019-05-16T15:10:58.427Z,26.08
2019-05-16T15:13:27.997Z,26.08
2019-05-16T15:15:57.803Z,26.04
2019-05-16T15:18:27.955Z,25.97
2019-05-16T15:20:58.265Z,25.97
2019-05-16T15:23:29.631Z,25.85
2019-05-16T15:25:59.990Z,25.50
2019-05-16T15:28:30.959Z,25.50
2019-05-16T15:31:01.043Z,25.59
2019-05-16T15:33:30.538Z,25.70
2019-05-16T15:36:00.450Z,25.70
2019-05-16T15:38:30.469Z,25.68
2019-05-16T15:41:00.873Z,25.79
2019-05-16T15:43:31.409Z,25.78
2019-05-16T15:46:01.307Z,25.78
2019-05-16T15:48:31.431Z,25.79
2019-05-16T15:51:00.940Z,25.78
2019-05-16T15:53:30.859Z,25.74
2019-05-16T15:56:00.761Z,25.74
2019-05-16T15:58:31.287Z,25.74
2019-05-16T16:01:00.623Z,25.76
2019-05-16T16:03:29.744Z,25.85
2019-05-16T16:06:00.626Z,25.85
2019-05-16T16:09:13.361Z,25.82
2019-05-16T16:11:43.258Z,25.67
2019-05-16T16:14:12.064Z,25.72
2019-05-16T16:16:42.320Z,25.69
2019-05-16T16:19:12.005Z,25.69
2019-05-16T16:21:41.967Z,26.03
2019-05-16T16:24:11.421Z,26.03
2019-05-16T16:26:41.825Z,26.07
2019-05-16T16:29:12.207Z,26.02
2019-05-16T16:31:41.204Z,26.00
2019-05-16T16:34:11.524Z,25.83
2019-05-16T16:36:41.439Z,25.83
2019-05-16T16:39:27.083Z,25.47
2019-05-16T16:41:57.207Z,25.49
2019-05-16T16:44:27.471Z,25.31
2019-05-16T16:46:57.988Z,25.31
2019-05-16T16:49:28.094Z,25.02
2019-05-16T16:51:57.411Z,25.00
2019-05-16T16:54:27.556Z,25.00
2019-05-16T16:56:58.247Z,24.96
2019-05-16T16:59:28.447Z,24.90
2019-05-16T17:01:58.389Z,24.90
2019-05-16T17:05:13.457Z,25.02
2019-05-16T17:07:42.239Z,24.95
2019-05-16T17:10:11.540Z,25.07
2019-05-16T17:12:42.494Z,25.10
2019-05-16T17:15:13.030Z,25.10
2019-05-16T17:17:42.989Z,25.15
2019-05-16T17:20:13.709Z,25.15
2019-05-16T17:22:43.315Z,25.18
2019-05-16T17:25:12.284Z,25.19
2019-05-16T17:27:41.688Z,25.17
2019-05-16T17:30:17.003Z,25.10
2019-05-16T17:32:46.739Z,25.10
2019-05-16T17:35:18.724Z,25.18
2019-05-16T17:37:47.915Z,25.23
2019-05-16T17:40:18.354Z,25.26
2019-05-16T17:42:48.420Z,25.26
2019-05-16T17:45:18.464Z,25.23
2019-05-16T17:47:48.136Z,25.29
2019-05-16T17:50:17.745Z,25.24
2019-05-16T17:52:48.004Z,25.24
2019-05-16T17:55:17.398Z,25.32
2019-05-16T17:57:47.906Z,25.24
2019-05-16T18:00:25.358Z,25.32
2019-05-16T18:02:49.187Z,25.32
2019-05-16T18:05:18.679Z,25.31
2019-05-16T18:07:49.266Z,25.31
2019-05-16T18:10:19.420Z,25.31
2019-05-16T18:12:49.790Z,25.39
2019-05-16T18:15:22.700Z,25.39
2019-05-16T18:17:51.908Z,25.35
2019-05-16T18:20:22.436Z,25.28
2019-05-16T18:22:52.293Z,25.35
2019-05-16T18:25:23.566Z,25.35
2019-05-16T18:27:53.095Z,25.37
2019-05-16T18:30:27.129Z,25.34
2019-05-16T18:32:56.474Z,25.36
2019-05-16T18:35:27.272Z,25.34
2019-05-16T18:37:57.085Z,25.34
2019-05-16T18:40:27.113Z,25.38
2019-05-16T18:42:57.208Z,25.26
2019-05-16T18:45:27.462Z,25.27
2019-05-16T18:47:57.559Z,25.30
2019-05-16T18:50:27.142Z,25.41
2019-05-16T18:52:57.139Z,25.39
2019-05-16T18:55:27.737Z,25.39
2019-05-16T18:57:57.613Z,25.33
2019-05-16T19:00:27.927Z,25.34
2019-05-16T19:02:56.409Z,25.35
2019-05-16T19:05:27.242Z,25.44
2019-05-16T19:07:57.048Z,25.41
2019-05-16T19:10:26.990Z,25.41
2019-05-16T19:12:59.719Z,25.26
2019-05-16T19:15:28.272Z,25.29
2019-05-16T19:17:58.682Z,25.29
2019-05-16T19:20:27.204Z,25.32
2019-05-16T19:22:58.868Z,25.35
2019-05-16T19:25:28.415Z,25.39
2019-05-16T19:27:58.404Z,25.36
2019-05-16T19:30:27.734Z,25.36
2019-05-16T19:33:41.032Z,25.34
2019-05-16T19:36:11.136Z,25.31
2019-05-16T19:38:41.108Z,25.32
2019-05-16T19:41:11.220Z,25.35
2019-05-16T19:43:42.260Z,25.35
2019-05-16T19:46:12.470Z,25.32
2019-05-16T19:48:46.331Z,25.32
2019-05-16T19:51:16.431Z,25.24
2019-05-16T19:53:47.063Z,25.30
2019-05-16T19:56:17.865Z,25.34
2019-05-16T19:58:47.789Z,25.22
2019-05-16T20:01:17.466Z,25.22
2019-05-16T20:03:47.135Z,25.32
2019-05-16T20:06:17.030Z,25.19
2019-05-16T20:08:45.998Z,25.32
2019-05-16T20:11:16.888Z,25.32
2019-05-16T20:13:47.728Z,25.29
2019-05-16T20:16:18.654Z,25.33
2019-05-16T20:18:48.725Z,25.31
2019-05-16T20:21:18.518Z,25.16
2019-05-16T20:23:47.833Z,25.16
2019-05-16T20:26:16.936Z,25.28
2019-05-16T20:28:47.440Z,25.28
2019-05-16T20:31:17.342Z,25.28
2019-05-16T20:33:47.060Z,25.26
2019-05-16T20:36:17.303Z,25.19
2019-05-16T20:38:46.607Z,25.01
2019-05-16T20:41:17.101Z,25.01
2019-05-16T20:43:47.519Z,25.13
2019-05-16T20:46:16.869Z,25.11
2019-05-16T20:48:46.334Z,25.11
2019-05-16T20:51:16.903Z,25.11
2019-05-16T20:53:49.824Z,25.07
2019-05-16T20:56:19.536Z,25.07
2019-05-16T20:58:49.749Z,25.05
2019-05-16T21:01:19.180Z,24.99
2019-05-16T21:03:49.014Z,24.99
2019-05-16T21:06:18.649Z,24.86
2019-05-16T21:10:46.431Z,24.99
2019-05-16T21:13:17.295Z,24.82
2019-05-16T21:15:47.685Z,24.82
2019-05-16T21:18:17.813Z,24.81
2019-05-16T21:22:10.768Z,24.80
2019-05-16T21:24:40.664Z,24.58
2019-05-16T21:27:10.846Z,24.58
2019-05-16T21:29:39.803Z,24.66
2019-05-16T21:32:13.333Z,24.54
2019-05-16T21:34:42.801Z,24.54
2019-05-16T21:37:17.195Z,24.51
2019-05-16T21:39:43.566Z,24.44
2019-05-16T21:42:16.487Z,24.45
2019-05-16T21:44:46.672Z,24.38
2019-05-16T21:47:16.862Z,24.38
2019-05-16T21:49:47.315Z,24.35
2019-05-16T21:52:18.225Z,24.29
2019-05-16T21:54:48.314Z,24.29
2019-05-16T21:57:19.958Z,24.27
2019-05-16T22:02:20.577Z,24.22
2019-05-16T22:04:50.609Z,24.18
2019-05-16T22:07:32.643Z,24.19
2019-05-16T22:09:51.230Z,24.14
2019-05-16T22:12:40.474Z,24.16
2019-05-16T22:15:10.539Z,24.02
2019-05-16T22:17:41.823Z,24.02
2019-05-16T22:20:12.004Z,24.08
2019-05-16T22:22:42.267Z,24.06
2019-05-16T22:25:11.554Z,23.94
2019-05-16T22:27:41.150Z,23.94
2019-05-16T22:30:13.236Z,24.00
2019-05-16T22:32:43.334Z,23.94
2019-05-16T22:35:12.931Z,23.87
2019-05-16T22:37:52.060Z,23.82
2019-05-16T22:40:13.952Z,23.90
2019-05-16T22:42:42.627Z,23.90
2019-05-16T22:45:13.483Z,23.89
2019-05-16T22:47:42.811Z,23.86
2019-05-16T22:50:12.319Z,23.86
2019-05-16T22:52:42.133Z,23.83
2019-05-16T22:55:11.384Z,23.83
2019-05-16T22:57:40.804Z,23.86
2019-05-16T23:00:13.067Z,23.78
2019-05-16T23:02:42.521Z,23.63
2019-05-16T23:05:11.754Z,23.63
2019-05-16T23:08:10.710Z,23.78
2019-05-16T23:10:41.575Z,23.74
2019-05-16T23:13:11.847Z,23.60
2019-05-16T23:15:40.397Z,23.68
2019-05-16T23:18:09.958Z,23.68
2019-05-16T23:20:39.396Z,23.68
2019-05-16T23:23:08.711Z,23.58
2019-05-16T23:25:37.491Z,23.64
2019-05-16T23:28:07.639Z,23.64
2019-05-16T23:30:38.318Z,23.62
2019-05-16T23:33:07.488Z,23.57
2019-05-16T23:35:37.702Z,23.57
2019-05-16T23:38:18.524Z,23.58
2019-05-16T23:40:38.138Z,23.58
2019-05-16T23:43:07.712Z,23.47
2019-05-16T23:45:37.651Z,23.47
2019-05-16T23:48:10.260Z,23.54
2019-05-16T23:50:37.796Z,23.52
2019-05-16T23:53:07.551Z,23.39
2019-05-16T23:55:37.146Z,23.39
2019-05-16T23:58:07.678Z,23.52
